createdAt,value
2019-02-15T00:00:55.030Z,6.07
2019-02-15T00:03:24.220Z,6.47
2019-02-15T00:05:57.776Z,5.10
2019-02-15T00:08:29.429Z,5.50
2019-02-15T00:10:59.435Z,5.13
2019-02-15T00:13:29.248Z,6.50
2019-02-15T00:15:58.354Z,5.00
2019-02-15T00:18:40.075Z,5.60
2019-02-15T00:21:17.636Z,6.13
2019-02-15T00:23:46.952Z,7.30
2019-02-15T00:26:16.874Z,6.67
2019-02-15T00:28:46.255Z,5.80
2019-02-15T00:31:19.205Z,5.20
2019-02-15T00:33:49.770Z,6.13
2019-02-15T00:36:20.304Z,6.20
2019-02-15T00:38:50.688Z,5.90
2019-02-15T00:41:21.340Z,5.80
2019-02-15T00:43:50.652Z,6.37
2019-02-15T00:46:37.191Z,5.77
2019-02-15T00:49:08.141Z,5.10
2019-02-15T00:52:05.964Z,5.17
2019-02-15T00:55:10.396Z,5.60
2019-02-15T00:58:03.683Z,5.07
2019-02-15T01:00:42.747Z,4.53
2019-02-15T01:03:30.068Z,4.20
2019-02-15T01:06:24.123Z,4.03
2019-02-15T01:09:16.112Z,3.20
2019-02-15T01:11:59.387Z,3.73
2019-02-15T01:14:28.953Z,4.23
2019-02-15T01:16:58.775Z,4.10
2019-02-15T01:19:28.381Z,3.90
2019-02-15T01:22:00.853Z,4.30
2019-02-15T01:24:31.386Z,4.33
2019-02-15T01:27:13.263Z,3.83
2019-02-15T01:30:10.096Z,3.60
2019-02-15T01:33:09.291Z,3.57
2019-02-15T01:36:02.645Z,3.97
2019-02-15T01:39:08.150Z,4.00
2019-02-15T01:41:47.560Z,3.40
2019-02-15T01:44:44.816Z,2.87
2019-02-15T01:47:26.816Z,3.10
2019-02-15T01:49:57.115Z,4.00
2019-02-15T01:52:26.110Z,4.30
2019-02-15T01:54:55.636Z,4.33
2019-02-15T01:57:26.272Z,3.93
2019-02-15T01:59:56.072Z,4.20
2019-02-15T02:02:29.775Z,3.23
2019-02-15T02:05:00.328Z,3.50
2019-02-15T02:07:30.237Z,3.73
2019-02-15T02:09:59.532Z,4.50
2019-02-15T02:12:31.238Z,4.30
2019-02-15T02:15:00.748Z,3.37
2019-02-15T02:17:32.454Z,3.77
2019-02-15T02:20:14.340Z,3.57
2019-02-15T02:22:43.502Z,2.80
2019-02-15T02:25:12.385Z,3.97
2019-02-15T02:27:41.200Z,3.53
2019-02-15T02:30:11.245Z,3.97
2019-02-15T02:32:40.211Z,4.40
2019-02-15T02:35:10.048Z,3.87
2019-02-15T02:37:39.366Z,3.90
2019-02-15T02:40:08.859Z,3.87
2019-02-15T02:42:39.131Z,3.20
2019-02-15T02:45:08.711Z,3.67
2019-02-15T02:47:38.457Z,3.47
2019-02-15T02:50:07.702Z,3.10
2019-02-15T02:52:37.135Z,3.30
2019-02-15T02:55:06.133Z,3.80
2019-02-15T02:57:35.676Z,4.00
2019-02-15T03:00:05.334Z,4.67
2019-02-15T03:02:34.605Z,2.80
2019-02-15T03:05:03.942Z,4.63
2019-02-15T03:07:33.326Z,3.60
2019-02-15T03:10:02.649Z,3.40
2019-02-15T03:12:31.717Z,4.20
2019-02-15T03:15:02.564Z,4.03
2019-02-15T03:17:31.861Z,3.50
2019-02-15T03:20:01.997Z,3.17
2019-02-15T03:22:31.369Z,4.53
2019-02-15T03:25:00.663Z,4.30
2019-02-15T03:27:29.787Z,3.60
2019-02-15T03:29:58.748Z,4.33
2019-02-15T03:32:29.260Z,4.00
2019-02-15T03:34:58.604Z,4.33
2019-02-15T03:37:45.968Z,4.60
2019-02-15T03:40:24.797Z,5.10
2019-02-15T03:42:54.474Z,4.63
2019-02-15T03:45:23.837Z,4.77
2019-02-15T03:47:53.084Z,5.00
2019-02-15T03:50:21.933Z,4.90
2019-02-15T03:52:51.565Z,4.73
2019-02-15T03:55:20.957Z,5.17
2019-02-15T03:57:50.357Z,4.37
2019-02-15T04:00:19.420Z,4.10
2019-02-15T04:02:48.941Z,4.73
2019-02-15T04:05:18.278Z,3.50
2019-02-15T04:07:47.882Z,4.20
2019-02-15T04:10:17.449Z,4.63
2019-02-15T04:12:46.690Z,4.30
2019-02-15T04:15:16.158Z,4.03
2019-02-15T04:17:45.364Z,4.13
2019-02-15T04:20:14.691Z,3.93
2019-02-15T04:22:44.183Z,4.17
2019-02-15T04:25:14.014Z,4.47
2019-02-15T04:27:42.799Z,4.03
2019-02-15T04:30:12.567Z,4.60
2019-02-15T04:32:41.870Z,5.37
2019-02-15T04:35:10.891Z,4.80
2019-02-15T04:37:40.621Z,4.90
2019-02-15T04:40:10.030Z,5.03
2019-02-15T04:42:39.811Z,4.53
2019-02-15T04:45:09.145Z,4.57
2019-02-15T04:47:38.103Z,4.70
2019-02-15T04:50:08.449Z,4.60
2019-02-15T04:52:38.552Z,4.83
2019-02-15T04:55:07.618Z,5.57
2019-02-15T04:57:37.089Z,5.63
2019-02-15T05:00:06.710Z,4.93
2019-02-15T05:02:35.628Z,4.67
2019-02-15T05:05:05.341Z,4.77
2019-02-15T05:07:35.213Z,4.47
2019-02-15T05:10:04.617Z,4.87
2019-02-15T05:12:33.584Z,5.17
2019-02-15T05:15:02.981Z,4.67
2019-02-15T05:17:32.143Z,4.27
2019-02-15T05:20:04.641Z,4.60
2019-02-15T05:22:33.640Z,5.33
2019-02-15T05:25:03.049Z,4.43
2019-02-15T05:27:32.823Z,3.63
2019-02-15T05:30:02.560Z,5.03
2019-02-15T05:32:31.505Z,4.50
2019-02-15T05:35:01.350Z,4.77
2019-02-15T05:37:30.460Z,3.97
2019-02-15T05:40:00.038Z,5.20
2019-02-15T05:42:29.448Z,5.23
2019-02-15T05:45:03.880Z,4.60
2019-02-15T05:47:30.388Z,4.57
2019-02-15T05:49:59.950Z,5.17
2019-02-15T05:52:30.152Z,4.40
2019-02-15T05:54:59.317Z,4.17
2019-02-15T05:57:28.688Z,4.27
2019-02-15T05:59:58.020Z,5.57
2019-02-15T06:02:27.261Z,4.67
2019-02-15T06:04:56.839Z,4.50
2019-02-15T06:07:26.431Z,5.20
2019-02-15T06:09:55.612Z,5.20
2019-02-15T06:12:25.236Z,6.30
2019-02-15T06:14:54.542Z,7.90
2019-02-15T06:17:23.545Z,6.03
2019-02-15T06:19:52.940Z,6.60
2019-02-15T06:22:22.233Z,5.67
2019-02-15T06:24:52.041Z,6.43
2019-02-15T06:27:21.694Z,5.60
2019-02-15T06:29:50.588Z,5.50
2019-02-15T06:32:19.780Z,5.87
2019-02-15T06:34:49.274Z,8.03
2019-02-15T06:37:18.628Z,6.60
2019-02-15T06:39:47.798Z,7.17
2019-02-15T06:42:17.836Z,6.97
2019-02-15T06:44:47.476Z,6.57
2019-02-15T06:47:16.971Z,7.20
2019-02-15T06:49:45.908Z,8.30
2019-02-15T06:52:15.797Z,7.30
2019-02-15T06:54:45.304Z,8.77
2019-02-15T06:57:14.204Z,9.47
2019-02-15T07:00:11.417Z,9.00
2019-02-15T07:02:48.475Z,9.37
2019-02-15T07:05:25.726Z,10.87
2019-02-15T07:07:55.612Z,7.70
2019-02-15T07:10:24.635Z,8.50
2019-02-15T07:12:54.135Z,15.53
2019-02-15T07:15:23.171Z,9.67
2019-02-15T07:17:52.327Z,10.97
2019-02-15T07:20:21.682Z,7.00
2019-02-15T07:22:51.660Z,6.20
2019-02-15T07:25:20.918Z,5.67
2019-02-15T07:27:50.227Z,6.60
2019-02-15T07:30:19.726Z,6.30
2019-02-15T07:32:49.335Z,5.90
2019-02-15T07:35:18.651Z,6.17
2019-02-15T07:37:48.384Z,5.00
2019-02-15T07:40:17.582Z,5.30
2019-02-15T07:42:46.544Z,6.13
2019-02-15T07:45:17.771Z,6.37
2019-02-15T07:47:47.111Z,6.33
2019-02-15T07:50:15.968Z,6.50
2019-02-15T07:52:45.396Z,6.40
2019-02-15T07:55:15.241Z,6.10
2019-02-15T07:57:45.509Z,5.90
2019-02-15T08:00:14.915Z,5.63
2019-02-15T08:02:44.468Z,5.23
2019-02-15T08:05:13.420Z,6.20
2019-02-15T08:07:42.708Z,6.20
2019-02-15T08:10:12.007Z,6.00
2019-02-15T08:12:41.104Z,6.73
2019-02-15T08:15:10.103Z,7.13
2019-02-15T08:17:39.193Z,7.70
2019-02-15T08:20:09.808Z,8.30
2019-02-15T08:22:39.348Z,8.67
2019-02-15T08:25:08.340Z,8.23
2019-02-15T08:27:37.365Z,7.10
2019-02-15T08:30:07.187Z,7.70
2019-02-15T08:32:36.743Z,8.50
2019-02-15T08:35:06.540Z,7.97
2019-02-15T08:37:36.005Z,7.57
2019-02-15T08:40:05.496Z,9.67
2019-02-15T08:42:34.607Z,9.83
2019-02-15T08:45:04.428Z,11.97
2019-02-15T08:47:34.069Z,9.77
2019-02-15T08:50:03.040Z,10.60
2019-02-15T08:52:32.148Z,10.13
2019-02-15T08:55:03.208Z,9.90
2019-02-15T08:57:32.315Z,9.97
2019-02-15T09:00:01.450Z,8.77
2019-02-15T09:02:31.303Z,7.77
2019-02-15T09:05:04.121Z,7.60
2019-02-15T09:07:33.829Z,8.00
2019-02-15T09:10:03.404Z,6.90
2019-02-15T09:12:32.191Z,6.53
2019-02-15T09:15:04.492Z,6.80
2019-02-15T09:17:33.787Z,7.07
2019-02-15T09:20:02.919Z,7.33
2019-02-15T09:22:32.364Z,6.90
2019-02-15T09:25:03.869Z,6.60
2019-02-15T09:27:43.921Z,6.70
2019-02-15T09:30:13.579Z,6.80
2019-02-15T09:32:42.487Z,6.37
2019-02-15T09:35:11.415Z,6.03
2019-02-15T09:37:40.966Z,6.27
2019-02-15T09:40:10.088Z,6.03
2019-02-15T09:42:39.771Z,6.97
2019-02-15T09:45:10.468Z,6.80
2019-02-15T09:47:39.730Z,5.80
2019-02-15T09:50:09.735Z,5.10
2019-02-15T09:52:40.335Z,5.73
2019-02-15T09:55:09.672Z,5.17
2019-02-15T09:57:39.265Z,5.17
2019-02-15T10:00:08.363Z,5.40
2019-02-15T10:02:37.153Z,5.83
2019-02-15T10:05:06.451Z,4.67
2019-02-15T10:07:36.508Z,5.17
2019-02-15T10:10:05.936Z,4.97
2019-02-15T10:12:35.152Z,4.73
2019-02-15T10:15:04.908Z,5.13
2019-02-15T10:17:53.235Z,4.30
2019-02-15T10:20:22.312Z,4.93
2019-02-15T10:22:51.436Z,5.10
2019-02-15T10:25:20.757Z,5.20
2019-02-15T10:27:50.291Z,4.17
2019-02-15T10:30:19.456Z,4.30
2019-02-15T10:32:48.604Z,4.63
2019-02-15T10:35:17.423Z,3.80
2019-02-15T10:37:46.563Z,4.63
2019-02-15T10:40:15.854Z,3.93
2019-02-15T10:42:45.054Z,4.07
2019-02-15T10:45:14.445Z,3.90
2019-02-15T10:47:44.114Z,4.23
2019-02-15T10:50:13.616Z,3.63
2019-02-15T10:52:42.535Z,4.30
2019-02-15T10:55:11.879Z,3.93
2019-02-15T10:57:40.916Z,4.40
2019-02-15T11:00:16.592Z,4.77
2019-02-15T11:02:46.224Z,4.77
2019-02-15T11:05:15.957Z,4.17
2019-02-15T11:07:44.893Z,4.10
2019-02-15T11:10:13.849Z,5.10
2019-02-15T11:12:43.773Z,4.10
2019-02-15T11:15:13.244Z,4.13
2019-02-15T11:17:42.004Z,4.30
2019-02-15T11:20:12.140Z,3.90
2019-02-15T11:22:41.288Z,3.90
2019-02-15T11:25:10.727Z,3.57
2019-02-15T11:27:39.700Z,4.00
2019-02-15T11:30:11.421Z,3.80
2019-02-15T11:32:40.394Z,4.13
2019-02-15T11:35:10.787Z,4.37
2019-02-15T11:37:39.625Z,4.00
2019-02-15T11:40:10.764Z,3.50
2019-02-15T11:42:39.961Z,3.47
2019-02-15T11:45:10.285Z,3.60
2019-02-15T11:47:39.504Z,3.80
2019-02-15T11:50:10.077Z,3.60
2019-02-15T11:52:39.416Z,4.33
2019-02-15T11:55:08.763Z,3.73
2019-02-15T11:57:37.685Z,3.70
2019-02-15T12:00:14.131Z,3.80
2019-02-15T12:02:40.109Z,3.33
2019-02-15T12:05:09.296Z,4.00
2019-02-15T12:07:38.888Z,3.40
2019-02-15T12:10:08.468Z,3.20
2019-02-15T12:12:37.370Z,3.83
2019-02-15T12:15:07.034Z,3.40
2019-02-15T12:17:36.426Z,3.80
2019-02-15T12:20:06.101Z,3.60
2019-02-15T12:22:35.432Z,2.87
2019-02-15T12:25:04.733Z,3.43
2019-02-15T12:27:33.610Z,4.00
2019-02-15T12:30:02.868Z,3.47
2019-02-15T12:32:32.077Z,5.10
2019-02-15T12:35:00.871Z,3.10
2019-02-15T12:37:30.011Z,3.13
2019-02-15T12:40:00.029Z,3.37
2019-02-15T12:42:29.247Z,3.73
2019-02-15T12:44:58.417Z,4.50
2019-02-15T12:47:28.056Z,4.20
2019-02-15T12:49:57.968Z,3.53
2019-02-15T12:52:27.926Z,3.93
2019-02-15T12:54:57.084Z,3.20
2019-02-15T12:57:26.565Z,3.60
2019-02-15T12:59:56.298Z,3.60
2019-02-15T13:02:25.123Z,4.07
2019-02-15T13:04:54.561Z,3.53
2019-02-15T13:07:23.957Z,3.50
2019-02-15T13:09:53.475Z,3.70
2019-02-15T13:12:22.491Z,3.37
2019-02-15T13:14:51.745Z,3.60
2019-02-15T13:17:24.695Z,3.20
2019-02-15T13:19:52.288Z,2.97
2019-02-15T13:22:21.212Z,3.30
2019-02-15T13:24:50.547Z,2.90
2019-02-15T13:27:19.443Z,2.70
2019-02-15T13:29:48.634Z,3.40
2019-02-15T13:32:18.252Z,3.80
2019-02-15T13:34:48.102Z,3.13
2019-02-15T13:37:17.288Z,2.90
2019-02-15T13:39:46.940Z,3.50
2019-02-15T13:42:16.235Z,3.93
2019-02-15T13:44:45.437Z,3.30
2019-02-15T13:47:14.420Z,4.40
2019-02-15T13:49:43.668Z,4.00
2019-02-15T13:52:12.628Z,4.10
2019-02-15T13:54:42.020Z,3.60
2019-02-15T13:57:12.114Z,3.00
2019-02-15T13:59:41.656Z,3.87
2019-02-15T14:02:11.283Z,3.60
2019-02-15T14:04:40.838Z,4.47
2019-02-15T14:07:20.131Z,4.10
2019-02-15T14:09:49.682Z,4.20
2019-02-15T14:12:19.486Z,3.73
2019-02-15T14:14:48.503Z,3.67
2019-02-15T14:17:17.863Z,4.20
2019-02-15T14:19:47.569Z,5.00
2019-02-15T14:22:16.448Z,4.17
2019-02-15T14:24:45.682Z,4.80
2019-02-15T14:27:14.563Z,3.90
2019-02-15T14:29:44.392Z,3.97
2019-02-15T14:32:13.889Z,4.70
2019-02-15T14:34:43.108Z,6.50
2019-02-15T14:37:12.114Z,6.40
2019-02-15T14:39:42.037Z,8.67
2019-02-15T14:42:11.682Z,9.10
2019-02-15T14:44:40.949Z,7.10
2019-02-15T14:47:10.041Z,4.43
2019-02-15T14:49:39.335Z,4.67
2019-02-15T14:52:08.776Z,5.03
2019-02-15T14:54:38.059Z,5.57
2019-02-15T14:57:07.215Z,10.33
2019-02-15T14:59:38.923Z,8.93
2019-02-15T15:02:07.491Z,5.07
2019-02-15T15:04:36.588Z,4.93
2019-02-15T15:07:05.800Z,6.27
2019-02-15T15:09:35.124Z,6.40
2019-02-15T15:12:04.435Z,10.37
2019-02-15T15:14:33.519Z,9.20
2019-02-15T15:17:02.631Z,8.90
2019-02-15T15:19:31.520Z,6.33
2019-02-15T15:22:00.372Z,5.77
2019-02-15T15:24:29.680Z,6.20
2019-02-15T15:26:59.212Z,5.20
2019-02-15T15:29:28.746Z,5.20
2019-02-15T15:31:58.196Z,5.40
2019-02-15T15:34:27.388Z,5.27
2019-02-15T15:36:56.648Z,4.63
2019-02-15T15:39:25.813Z,5.23
2019-02-15T15:41:55.114Z,3.93
2019-02-15T15:44:24.893Z,4.67
2019-02-15T15:46:53.772Z,4.43
2019-02-15T15:49:23.032Z,4.43
2019-02-15T15:51:52.525Z,4.20
2019-02-15T15:54:21.807Z,4.37
2019-02-15T15:56:50.726Z,4.97
2019-02-15T15:59:20.208Z,4.77
2019-02-15T16:01:49.139Z,4.97
2019-02-15T16:04:18.424Z,4.90
2019-02-15T16:06:48.074Z,5.00
2019-02-15T16:09:18.168Z,4.63
2019-02-15T16:11:48.798Z,4.17
2019-02-15T16:14:18.070Z,4.00
2019-02-15T16:16:47.235Z,5.27
2019-02-15T16:19:16.869Z,4.33
2019-02-15T16:21:46.811Z,5.53
2019-02-15T16:24:16.337Z,4.23
2019-02-15T16:26:45.590Z,4.77
2019-02-15T16:29:15.146Z,4.50
2019-02-15T16:31:43.959Z,4.20
2019-02-15T16:34:13.180Z,4.00
2019-02-15T16:36:42.700Z,4.53
2019-02-15T16:39:11.677Z,4.27
2019-02-15T16:41:41.184Z,5.07
2019-02-15T16:44:10.196Z,3.90
2019-02-15T16:46:39.079Z,3.40
2019-02-15T16:49:09.189Z,3.97
2019-02-15T16:51:38.741Z,3.13
2019-02-15T16:54:08.396Z,4.20
2019-02-15T16:56:38.208Z,3.80
2019-02-15T16:59:07.881Z,4.47
2019-02-15T17:01:37.715Z,3.87
2019-02-15T17:04:07.136Z,3.90
2019-02-15T17:06:36.454Z,4.53
2019-02-15T17:09:13.829Z,4.97
2019-02-15T17:11:43.056Z,3.90
2019-02-15T17:14:12.806Z,4.40
2019-02-15T17:16:41.841Z,4.00
2019-02-15T17:19:11.358Z,4.57
2019-02-15T17:21:40.758Z,4.90
2019-02-15T17:24:09.700Z,5.37
2019-02-15T17:26:39.421Z,4.70
2019-02-15T17:29:08.639Z,4.73
2019-02-15T17:31:38.192Z,4.80
2019-02-15T17:34:08.027Z,5.00
2019-02-15T17:36:37.727Z,4.50
2019-02-15T17:39:07.156Z,4.37
2019-02-15T17:41:36.374Z,5.43
2019-02-15T17:44:06.207Z,5.37
2019-02-15T17:46:35.376Z,5.23
2019-02-15T17:49:04.297Z,4.27
2019-02-15T17:51:33.980Z,4.17
2019-02-15T17:54:04.231Z,4.20
2019-02-15T17:56:33.356Z,4.37
2019-02-15T17:59:03.931Z,3.93
2019-02-15T18:01:34.099Z,4.30
2019-02-15T18:04:03.044Z,3.70
2019-02-15T18:06:32.824Z,4.20
2019-02-15T18:09:02.109Z,3.90
2019-02-15T18:11:31.447Z,3.67
2019-02-15T18:14:00.540Z,4.27
2019-02-15T18:16:29.867Z,4.57
2019-02-15T18:18:59.153Z,4.37
2019-02-15T18:21:28.971Z,4.50
2019-02-15T18:23:58.804Z,4.40
2019-02-15T18:26:28.097Z,4.37
2019-02-15T18:28:57.939Z,4.60
2019-02-15T18:31:27.305Z,4.27
2019-02-15T18:33:56.488Z,4.27
2019-02-15T18:36:25.716Z,4.60
2019-02-15T18:38:54.806Z,4.43
2019-02-15T18:41:24.242Z,4.50
2019-02-15T18:43:54.695Z,3.80
2019-02-15T18:46:24.211Z,4.90
2019-02-15T18:48:54.084Z,4.70
2019-02-15T18:51:23.443Z,4.93
2019-02-15T18:53:52.373Z,5.10
2019-02-15T18:56:21.280Z,4.73
2019-02-15T18:58:51.126Z,5.27
2019-02-15T19:01:20.725Z,5.03
2019-02-15T19:03:50.402Z,4.93
2019-02-15T19:06:19.635Z,5.20
2019-02-15T19:08:48.543Z,5.10
2019-02-15T19:11:17.942Z,5.37
2019-02-15T19:13:47.424Z,4.93
2019-02-15T19:16:17.192Z,5.90
2019-02-15T19:18:46.753Z,4.80
2019-02-15T19:21:16.063Z,5.77
2019-02-15T19:23:45.092Z,5.60
2019-02-15T19:26:14.323Z,5.20
2019-02-15T19:28:43.287Z,6.10
2019-02-15T19:31:12.845Z,5.97
2019-02-15T19:33:42.184Z,5.23
2019-02-15T19:36:11.350Z,4.70
2019-02-15T19:38:40.318Z,4.90
2019-02-15T19:41:09.841Z,5.60
2019-02-15T19:43:39.809Z,6.33
2019-02-15T19:46:09.568Z,5.33
2019-02-15T19:48:38.952Z,5.00
2019-02-15T19:51:07.864Z,5.90
2019-02-15T19:53:37.062Z,6.53
2019-02-15T19:56:06.673Z,5.53
2019-02-15T19:58:36.171Z,5.97
2019-02-15T20:01:05.329Z,6.53
2019-02-15T20:03:34.725Z,6.57
2019-02-15T20:06:06.638Z,5.80
2019-02-15T20:08:36.083Z,7.40
2019-02-15T20:11:05.784Z,6.97
2019-02-15T20:13:35.969Z,7.47
2019-02-15T20:16:05.172Z,6.50
2019-02-15T20:18:36.576Z,6.80
2019-02-15T20:21:05.960Z,6.10
2019-02-15T20:23:35.164Z,7.30
2019-02-15T20:26:04.319Z,6.30
2019-02-15T20:28:33.932Z,6.63
2019-02-15T20:31:02.745Z,6.33
2019-02-15T20:33:31.967Z,7.60
2019-02-15T20:36:04.105Z,6.53
2019-02-15T20:38:33.179Z,7.47
2019-02-15T20:41:04.026Z,7.50
2019-02-15T20:43:33.204Z,7.23
2019-02-15T20:46:03.008Z,7.60
2019-02-15T20:48:32.382Z,7.00
2019-02-15T20:51:04.917Z,7.73
2019-02-15T20:53:34.613Z,6.67
2019-02-15T20:56:07.535Z,7.37
2019-02-15T20:58:36.480Z,6.67
2019-02-15T21:01:06.088Z,5.10
2019-02-15T21:03:35.217Z,6.80
2019-02-15T21:06:04.888Z,6.70
2019-02-15T21:08:34.136Z,6.43
2019-02-15T21:11:03.039Z,6.17
2019-02-15T21:13:32.793Z,6.07
2019-02-15T21:16:02.292Z,6.10
2019-02-15T21:18:31.491Z,7.13
2019-02-15T21:21:00.688Z,6.57
2019-02-15T21:23:30.312Z,6.53
2019-02-15T21:26:00.006Z,6.97
2019-02-15T21:28:29.520Z,6.37
2019-02-15T21:30:59.016Z,5.50
2019-02-15T21:33:28.098Z,6.30
2019-02-15T21:35:57.547Z,5.50
2019-02-15T21:38:27.317Z,6.67
2019-02-15T21:40:56.596Z,6.13
2019-02-15T21:43:25.619Z,6.67
2019-02-15T21:45:55.124Z,6.70
2019-02-15T21:48:26.705Z,5.80
2019-02-15T21:50:56.336Z,6.00
2019-02-15T21:53:25.648Z,5.63
2019-02-15T21:55:55.329Z,6.53
2019-02-15T21:58:24.662Z,5.93
2019-02-15T22:00:53.884Z,5.93
2019-02-15T22:03:23.464Z,6.13
2019-02-15T22:05:53.226Z,5.10
2019-02-15T22:08:23.324Z,5.70
2019-02-15T22:10:52.532Z,4.80
2019-02-15T22:13:21.734Z,6.40
2019-02-15T22:15:50.836Z,7.77
2019-02-15T22:18:20.337Z,5.93
2019-02-15T22:20:50.044Z,6.03
2019-02-15T22:23:19.906Z,5.93
2019-02-15T22:25:49.997Z,5.30
2019-02-15T22:28:19.123Z,6.40
2019-02-15T22:30:48.951Z,5.43
2019-02-15T22:33:18.395Z,6.00
2019-02-15T22:35:47.388Z,5.80
2019-02-15T22:38:16.688Z,5.90
2019-02-15T22:40:47.166Z,6.90
2019-02-15T22:43:18.965Z,6.50
2019-02-15T22:45:48.347Z,5.70
2019-02-15T22:48:18.160Z,5.30
2019-02-15T22:50:48.514Z,5.70
2019-02-15T22:53:17.591Z,5.80
2019-02-15T22:55:46.944Z,5.17
2019-02-15T22:58:16.707Z,6.37
2019-02-15T23:00:54.570Z,5.47
2019-02-15T23:03:25.128Z,6.33
2019-02-15T23:05:54.645Z,5.90
2019-02-15T23:08:24.163Z,5.63
2019-02-15T23:10:53.479Z,5.93
2019-02-15T23:13:23.400Z,4.90
2019-02-15T23:15:52.693Z,5.77
2019-02-15T23:18:22.011Z,4.67
2019-02-15T23:20:51.817Z,6.17
2019-02-15T23:23:21.216Z,6.27
2019-02-15T23:25:50.727Z,5.93
2019-02-15T23:28:20.304Z,5.13
2019-02-15T23:30:49.471Z,5.93
2019-02-15T23:33:19.045Z,6.10
2019-02-15T23:35:48.993Z,6.10
2019-02-15T23:38:18.507Z,5.83
2019-02-15T23:40:47.333Z,6.63
2019-02-15T23:43:16.674Z,5.40
2019-02-15T23:45:46.005Z,6.60
2019-02-15T23:48:15.447Z,5.73
2019-02-15T23:50:44.712Z,6.13
2019-02-15T23:53:14.249Z,5.93
2019-02-15T23:55:43.903Z,5.20
2019-02-15T23:58:13.133Z,5.97
